createdAt,value
2022-11-21T00:01:42.183Z,100.00
2022-11-21T00:04:10.251Z,100.00
2022-11-21T00:06:38.334Z,100.00
2022-11-21T00:09:06.459Z,100.00
2022-11-21T00:11:34.542Z,100.00
2022-11-21T00:14:02.660Z,100.00
2022-11-21T00:16:32.146Z,100.00
2022-11-21T00:19:01.309Z,100.00
2022-11-21T00:21:29.461Z,100.00
2022-11-21T00:23:57.600Z,100.00
2022-11-21T00:26:25.714Z,100.00
2022-11-21T00:28:54.156Z,100.00
2022-11-21T00:31:24.225Z,100.00
2022-11-21T00:33:53.766Z,100.00
2022-11-21T00:36:21.819Z,100.00
2022-11-21T00:38:49.922Z,100.00
2022-11-21T00:41:18.159Z,100.00
2022-11-21T00:43:46.322Z,100.00
2022-11-21T00:46:14.342Z,100.00
2022-11-21T00:48:42.494Z,100.00
2022-11-21T00:51:11.966Z,100.00
2022-11-21T00:53:40.138Z,100.00
2022-11-21T00:56:08.385Z,100.00
2022-11-21T00:58:36.690Z,100.00
2022-11-21T01:01:07.269Z,100.00
2022-11-21T01:03:36.042Z,100.00
2022-11-21T01:06:06.568Z,100.00
2022-11-21T01:08:39.270Z,100.00
2022-11-21T01:11:09.282Z,100.00
2022-11-21T01:13:38.330Z,100.00
2022-11-21T01:16:08.001Z,100.00
2022-11-21T01:18:36.774Z,100.00
2022-11-21T01:21:06.951Z,100.00
2022-11-21T01:23:36.380Z,100.00
2022-11-21T01:26:05.061Z,100.00
2022-11-21T01:28:34.194Z,100.00
2022-11-21T01:31:06.358Z,100.00
2022-11-21T01:33:34.845Z,100.00
2022-11-21T01:36:11.096Z,100.00
2022-11-21T01:38:41.454Z,100.00
2022-11-21T01:41:10.631Z,100.00
2022-11-21T01:43:39.353Z,100.00
2022-11-21T01:46:15.009Z,100.00
2022-11-21T01:48:48.818Z,100.00
2022-11-21T01:51:22.793Z,100.00
2022-11-21T01:53:57.529Z,100.00
2022-11-21T01:56:26.794Z,100.00
2022-11-21T01:58:59.688Z,100.00
2022-11-21T02:01:28.832Z,100.00
2022-11-21T02:03:58.227Z,100.00
2022-11-21T02:06:27.201Z,100.00
2022-11-21T02:08:58.433Z,100.00
2022-11-21T02:11:32.027Z,100.00
2022-11-21T02:14:01.644Z,100.00
2022-11-21T02:16:30.550Z,100.00
2022-11-21T02:18:58.923Z,100.00
2022-11-21T02:21:39.511Z,100.00
2022-11-21T02:24:16.362Z,100.00
2022-11-21T02:26:47.909Z,100.00
2022-11-21T02:29:17.262Z,100.00
2022-11-21T02:31:45.423Z,100.00
2022-11-21T02:34:13.618Z,100.00
2022-11-21T02:36:45.567Z,100.00
2022-11-21T02:39:20.092Z,100.00
2022-11-21T02:41:58.539Z,100.00
2022-11-21T02:44:33.861Z,100.00
2022-11-21T02:47:01.962Z,100.00
2022-11-21T02:49:50.588Z,100.00
2022-11-21T02:52:18.658Z,100.00
2022-11-21T02:54:46.849Z,100.00
2022-11-21T02:57:16.257Z,100.00
2022-11-21T02:59:44.331Z,100.00
2022-11-21T03:02:12.540Z,99.92
2022-11-21T03:04:40.587Z,97.48
2022-11-21T03:07:08.793Z,97.74
2022-11-21T03:09:36.876Z,97.54
2022-11-21T03:12:07.857Z,96.81
2022-11-21T03:14:38.076Z,97.59
2022-11-21T03:17:06.304Z,97.80
2022-11-21T03:19:34.460Z,96.95
2022-11-21T03:22:02.515Z,97.34
2022-11-21T03:24:30.658Z,98.00
2022-11-21T03:26:58.902Z,98.97
2022-11-21T03:29:27.205Z,100.00
2022-11-21T03:31:57.004Z,100.00
2022-11-21T03:34:25.853Z,100.00
2022-11-21T03:36:54.262Z,100.00
2022-11-21T03:39:22.377Z,100.00
2022-11-21T03:41:50.822Z,100.00
2022-11-21T03:44:19.032Z,100.00
2022-11-21T03:46:47.866Z,100.00
2022-11-21T03:49:17.956Z,100.00
2022-11-21T03:51:46.430Z,100.00
2022-11-21T03:54:14.696Z,100.00
2022-11-21T03:56:42.794Z,100.00
2022-11-21T03:59:10.851Z,100.00
2022-11-21T04:01:39.169Z,100.00
2022-11-21T04:04:07.330Z,100.00
2022-11-21T04:06:36.863Z,100.00
2022-11-21T04:09:05.338Z,100.00
2022-11-21T04:11:33.450Z,100.00
2022-11-21T04:14:01.580Z,100.00
2022-11-21T04:16:29.809Z,100.00
2022-11-21T04:18:57.878Z,100.00
2022-11-21T04:21:25.931Z,100.00
2022-11-21T04:23:55.415Z,100.00
2022-11-21T04:26:23.476Z,100.00
2022-11-21T04:28:51.545Z,100.00
2022-11-21T04:31:19.634Z,100.00
2022-11-21T04:33:47.691Z,100.00
2022-11-21T04:36:16.124Z,100.00
2022-11-21T04:38:44.245Z,100.00
2022-11-21T04:41:13.729Z,100.00
2022-11-21T04:43:41.849Z,100.00
2022-11-21T04:46:09.950Z,100.00
2022-11-21T04:48:38.076Z,100.00
2022-11-21T04:51:06.156Z,100.00
2022-11-21T04:53:37.460Z,100.00
2022-11-21T04:56:09.585Z,100.00
2022-11-21T04:58:39.044Z,99.44
2022-11-21T05:01:08.959Z,98.99
2022-11-21T05:03:37.275Z,99.48
2022-11-21T05:06:05.766Z,99.86
2022-11-21T05:08:33.864Z,99.75
2022-11-21T05:11:19.317Z,99.85
2022-11-21T05:13:48.762Z,99.94
2022-11-21T05:16:16.926Z,99.59
2022-11-21T05:18:46.056Z,99.13
2022-11-21T05:21:14.265Z,99.01
2022-11-21T05:23:42.621Z,99.58
2022-11-21T05:26:10.843Z,100.00
2022-11-21T05:28:38.998Z,100.00
2022-11-21T05:31:08.569Z,100.00
2022-11-21T05:33:36.662Z,100.00
2022-11-21T05:36:05.550Z,100.00
2022-11-21T05:38:33.818Z,100.00
2022-11-21T05:41:02.055Z,100.00
2022-11-21T05:43:49.086Z,100.00
2022-11-21T05:46:20.826Z,100.00
2022-11-21T05:48:50.326Z,100.00
2022-11-21T05:51:19.501Z,100.00
2022-11-21T05:53:48.645Z,100.00
2022-11-21T05:56:19.172Z,100.00
2022-11-21T05:58:47.814Z,98.81
2022-11-21T06:01:36.661Z,97.51
2022-11-21T06:04:05.333Z,95.00
2022-11-21T06:06:33.520Z,92.88
2022-11-21T06:09:02.241Z,87.59
2022-11-21T06:11:30.573Z,83.69
2022-11-21T06:13:58.682Z,82.45
2022-11-21T06:16:26.792Z,81.21
2022-11-21T06:18:58.441Z,78.56
2022-11-21T06:21:30.047Z,75.90
2022-11-21T06:23:59.623Z,72.58
2022-11-21T06:26:29.108Z,71.22
2022-11-21T06:28:57.567Z,71.32
2022-11-21T06:31:27.717Z,73.60
2022-11-21T06:33:56.806Z,79.06
2022-11-21T06:36:25.852Z,80.69
2022-11-21T06:38:56.848Z,81.22
2022-11-21T06:41:27.023Z,82.87
2022-11-21T06:43:55.239Z,82.34
2022-11-21T06:46:23.311Z,82.99
2022-11-21T06:48:52.566Z,83.67
2022-11-21T06:51:22.309Z,84.06
2022-11-21T06:53:56.742Z,84.42
2022-11-21T06:56:25.879Z,85.69
2022-11-21T06:58:54.315Z,85.55
2022-11-21T07:01:22.925Z,86.47
2022-11-21T07:03:51.242Z,86.78
2022-11-21T07:06:19.437Z,87.85
2022-11-21T07:08:52.429Z,89.17
2022-11-21T07:11:30.705Z,90.51
2022-11-21T07:13:57.828Z,91.26
2022-11-21T07:16:26.449Z,92.09
2022-11-21T07:18:54.929Z,94.05
2022-11-21T07:21:23.064Z,95.65
2022-11-21T07:23:51.165Z,97.67
2022-11-21T07:26:19.324Z,98.50
2022-11-21T07:28:49.147Z,99.03
2022-11-21T07:31:17.291Z,99.71
2022-11-21T07:33:46.858Z,100.00
2022-11-21T07:36:15.530Z,100.00
2022-11-21T07:38:43.695Z,100.00
2022-11-21T07:41:12.259Z,99.91
2022-11-21T07:43:40.373Z,100.00
2022-11-21T07:46:10.165Z,100.00
2022-11-21T07:48:38.368Z,100.00
2022-11-21T07:51:07.295Z,100.00
2022-11-21T07:53:35.723Z,100.00
2022-11-21T07:56:04.957Z,100.00
2022-11-21T07:58:33.279Z,100.00
2022-11-21T08:01:04.704Z,99.51
2022-11-21T08:03:34.570Z,97.42
2022-11-21T08:06:03.920Z,96.85
2022-11-21T08:08:32.777Z,96.79
2022-11-21T08:11:05.984Z,95.84
2022-11-21T08:13:34.902Z,94.56
2022-11-21T08:16:04.921Z,92.85
2022-11-21T08:18:34.657Z,90.26
2022-11-21T08:21:03.765Z,85.63
2022-11-21T08:23:32.115Z,85.20
2022-11-21T08:26:00.427Z,84.67
2022-11-21T08:28:29.014Z,84.29
2022-11-21T08:30:57.101Z,82.78
2022-11-21T08:33:25.223Z,82.37
2022-11-21T08:35:54.667Z,81.27
2022-11-21T08:38:22.828Z,80.70
2022-11-21T08:41:16.234Z,80.30
2022-11-21T08:43:46.099Z,80.24
2022-11-21T08:46:14.254Z,78.94
2022-11-21T08:48:42.378Z,77.83
2022-11-21T08:51:11.986Z,77.96
2022-11-21T08:53:40.076Z,77.75
2022-11-21T08:56:08.192Z,77.86
2022-11-21T08:58:36.347Z,77.85
2022-11-21T09:01:04.428Z,78.42
2022-11-21T09:03:32.902Z,78.65
2022-11-21T09:06:01.413Z,78.57
2022-11-21T09:08:31.489Z,78.96
2022-11-21T09:10:59.778Z,78.83
2022-11-21T09:13:28.609Z,78.87
2022-11-21T09:16:20.100Z,78.37
2022-11-21T09:18:48.769Z,78.14
2022-11-21T09:21:17.192Z,77.14
2022-11-21T09:23:47.153Z,76.25
2022-11-21T09:26:15.391Z,75.56
2022-11-21T09:28:43.446Z,75.62
2022-11-21T09:31:11.584Z,75.94
2022-11-21T09:33:39.729Z,75.63
2022-11-21T09:36:07.824Z,75.84
2022-11-21T09:38:36.044Z,75.20
2022-11-21T09:41:44.641Z,75.08
2022-11-21T09:44:22.253Z,73.50
2022-11-21T09:46:56.599Z,73.78
2022-11-21T09:49:27.208Z,75.02
2022-11-21T09:51:58.447Z,75.67
2022-11-21T09:54:32.771Z,75.64
2022-11-21T09:57:02.796Z,75.30
2022-11-21T09:59:35.404Z,75.33
2022-11-21T10:02:04.876Z,74.91
2022-11-21T10:04:33.027Z,75.56
2022-11-21T10:07:05.941Z,75.91
2022-11-21T10:09:45.614Z,75.96
2022-11-21T10:12:38.765Z,76.00
2022-11-21T10:15:25.388Z,76.14
2022-11-21T10:18:09.221Z,75.98
2022-11-21T10:20:50.900Z,75.56
2022-11-21T10:23:38.234Z,75.45
2022-11-21T10:26:18.207Z,75.81
2022-11-21T10:28:53.518Z,74.89
2022-11-21T10:31:23.310Z,74.32
2022-11-21T10:33:54.398Z,74.25
2022-11-21T10:36:28.321Z,75.00
2022-11-21T10:39:02.345Z,77.27
2022-11-21T10:41:41.873Z,78.70
2022-11-21T10:44:40.290Z,79.46
2022-11-21T10:47:16.942Z,80.97
2022-11-21T10:49:48.283Z,82.13
2022-11-21T10:52:21.748Z,81.62
2022-11-21T10:55:11.374Z,82.08
2022-11-21T10:57:46.797Z,83.96
2022-11-21T11:00:22.976Z,85.13
2022-11-21T11:03:05.151Z,84.58
2022-11-21T11:05:34.419Z,83.73
2022-11-21T11:08:06.197Z,82.11
2022-11-21T11:10:36.644Z,83.01
2022-11-21T11:13:47.250Z,83.57
2022-11-21T11:16:19.681Z,85.40
2022-11-21T11:18:52.219Z,85.45
2022-11-21T11:21:22.412Z,85.96
2022-11-21T11:23:51.365Z,85.69
2022-11-21T11:26:28.791Z,84.75
2022-11-21T11:29:10.438Z,82.82
2022-11-21T11:31:46.158Z,81.89
2022-11-21T11:34:16.001Z,82.62
2022-11-21T11:37:04.133Z,84.46
2022-11-21T11:39:39.892Z,88.92
2022-11-21T11:42:59.178Z,88.74
2022-11-21T11:46:11.662Z,89.59
2022-11-21T11:49:03.690Z,89.21
2022-11-21T11:51:36.254Z,89.58
2022-11-21T11:54:10.088Z,93.66
2022-11-21T11:56:38.777Z,96.55
2022-11-21T11:59:17.605Z,97.01
2022-11-21T12:01:52.775Z,95.24
2022-11-21T12:04:23.917Z,95.61
2022-11-21T12:09:51.621Z,93.32
2022-11-21T12:12:29.778Z,94.59
2022-11-21T12:15:29.609Z,95.63
2022-11-21T12:18:17.415Z,100.00
2022-11-21T12:20:57.086Z,98.00
2022-11-21T12:23:28.978Z,99.56
2022-11-21T12:26:15.262Z,98.49
2022-11-21T12:28:55.684Z,96.98
2022-11-21T12:31:28.815Z,95.68
2022-11-21T12:34:05.695Z,95.25
2022-11-21T12:36:41.987Z,97.22
2022-11-21T12:39:57.983Z,97.78
2022-11-21T12:42:50.700Z,92.96
2022-11-21T12:45:29.087Z,91.17
2022-11-21T12:48:41.194Z,87.04
2022-11-21T12:52:03.761Z,88.84
2022-11-21T12:54:53.757Z,90.48
2022-11-21T12:57:28.560Z,90.31
2022-11-21T13:00:05.488Z,89.97
2022-11-21T13:02:50.092Z,89.96
2022-11-21T13:05:25.400Z,90.41
2022-11-21T13:08:04.557Z,91.64
2022-11-21T13:10:34.152Z,90.75
2022-11-21T13:13:09.230Z,88.70
2022-11-21T13:15:44.889Z,87.95
2022-11-21T13:18:20.477Z,87.03
2022-11-21T13:20:50.219Z,87.66
2022-11-21T13:23:39.813Z,86.79
2022-11-21T13:26:45.295Z,87.42
2022-11-21T13:29:14.788Z,86.58
2022-11-21T13:31:43.545Z,86.22
2022-11-21T13:34:37.563Z,85.80
2022-11-21T13:37:06.455Z,85.51
2022-11-21T13:39:39.592Z,84.87
2022-11-21T13:42:27.204Z,85.30
2022-11-21T13:44:55.849Z,86.32
2022-11-21T13:48:00.451Z,85.71
2022-11-21T13:51:00.559Z,85.91
2022-11-21T13:54:04.006Z,85.59
2022-11-21T13:56:38.920Z,83.70
2022-11-21T13:59:21.062Z,85.71
2022-11-21T14:02:05.279Z,84.79
2022-11-21T14:05:08.007Z,85.14
2022-11-21T14:07:38.096Z,83.06
2022-11-21T14:10:20.524Z,81.78
2022-11-21T14:12:52.013Z,81.46
2022-11-21T14:15:28.605Z,82.67
2022-11-21T14:17:59.313Z,84.22
2022-11-21T14:20:30.628Z,83.66
2022-11-21T14:23:03.444Z,83.14
2022-11-21T14:25:38.053Z,83.92
2022-11-21T14:28:11.425Z,83.67
2022-11-21T14:30:41.233Z,83.62
2022-11-21T14:33:26.480Z,85.48
2022-11-21T14:35:59.319Z,85.07
2022-11-21T14:38:28.755Z,85.39
2022-11-21T14:41:32.172Z,86.97
2022-11-21T14:44:19.336Z,85.96
2022-11-21T14:46:48.231Z,87.18
2022-11-21T14:49:22.751Z,86.57
2022-11-21T14:51:52.843Z,88.02
2022-11-21T14:54:23.237Z,87.69
2022-11-21T14:56:58.743Z,89.10
2022-11-21T14:59:32.113Z,89.61
2022-11-21T15:02:03.984Z,90.03
2022-11-21T15:04:34.909Z,89.87
2022-11-21T15:07:03.623Z,88.99
2022-11-21T15:12:28.921Z,90.39
2022-11-21T15:15:01.770Z,91.12
2022-11-21T15:17:30.770Z,89.08
2022-11-21T15:20:11.608Z,88.42
2022-11-21T15:22:42.905Z,88.65
2022-11-21T15:25:18.336Z,89.27
2022-11-21T15:27:47.306Z,91.10
2022-11-21T15:30:29.760Z,93.09
2022-11-21T15:33:11.646Z,95.21
2022-11-21T15:35:48.815Z,97.10
2022-11-21T15:38:26.479Z,97.92
2022-11-21T15:41:03.242Z,99.33
2022-11-21T15:43:39.430Z,99.84
2022-11-21T15:46:18.989Z,100.00
2022-11-21T15:48:48.954Z,100.00
2022-11-21T15:51:20.497Z,100.00
2022-11-21T15:54:00.263Z,100.00
2022-11-21T15:56:28.802Z,100.00
2022-11-21T15:58:57.071Z,100.00
2022-11-21T16:01:29.850Z,100.00
2022-11-21T16:03:59.504Z,100.00
2022-11-21T16:06:27.725Z,100.00
2022-11-21T16:08:55.872Z,100.00
2022-11-21T16:11:26.140Z,99.53
2022-11-21T16:13:55.931Z,99.67
2022-11-21T16:16:27.949Z,100.00
2022-11-21T16:18:57.517Z,100.00
2022-11-21T16:21:26.486Z,100.00
2022-11-21T16:23:55.841Z,100.00
2022-11-21T16:26:27.972Z,100.00
2022-11-21T16:28:56.294Z,100.00
2022-11-21T16:31:27.071Z,100.00
2022-11-21T16:33:55.724Z,100.00
2022-11-21T16:36:25.562Z,100.00
2022-11-21T16:38:53.940Z,100.00
2022-11-21T16:41:24.735Z,100.00
2022-11-21T16:44:00.611Z,100.00
2022-11-21T16:46:30.061Z,100.00
2022-11-21T16:49:03.129Z,100.00
2022-11-21T16:51:31.764Z,100.00
2022-11-21T16:54:04.379Z,100.00
2022-11-21T16:56:36.601Z,100.00
2022-11-21T16:59:04.777Z,100.00
2022-11-21T17:01:34.446Z,100.00
2022-11-21T17:04:02.600Z,100.00
2022-11-21T17:06:32.273Z,100.00
2022-11-21T17:09:02.133Z,100.00
2022-11-21T17:11:32.255Z,100.00
2022-11-21T17:14:02.578Z,100.00
2022-11-21T17:16:31.102Z,100.00
2022-11-21T17:19:02.505Z,100.00
2022-11-21T17:21:32.135Z,100.00
2022-11-21T17:24:00.490Z,100.00
2022-11-21T17:26:29.885Z,100.00
2022-11-21T17:28:59.309Z,100.00
2022-11-21T17:31:28.059Z,100.00
2022-11-21T17:33:57.879Z,100.00
2022-11-21T17:36:30.067Z,100.00
2022-11-21T17:38:58.298Z,100.00
2022-11-21T17:41:26.982Z,100.00
2022-11-21T17:43:56.279Z,100.00
2022-11-21T17:46:25.576Z,100.00
2022-11-21T17:48:58.072Z,100.00
2022-11-21T17:51:30.101Z,100.00
2022-11-21T17:53:59.550Z,100.00
2022-11-21T17:56:29.488Z,100.00
2022-11-21T17:58:57.912Z,100.00
2022-11-21T18:01:26.728Z,100.00
2022-11-21T18:03:57.620Z,100.00
2022-11-21T18:06:28.397Z,100.00
2022-11-21T18:08:57.668Z,100.00
2022-11-21T18:11:34.437Z,100.00
2022-11-21T18:14:06.539Z,100.00
2022-11-21T18:16:35.239Z,100.00
2022-11-21T18:19:03.376Z,100.00
2022-11-21T18:21:35.518Z,100.00
2022-11-21T18:24:03.968Z,100.00
2022-11-21T18:26:33.519Z,100.00
2022-11-21T18:31:53.149Z,100.00
2022-11-21T18:34:21.531Z,99.23
2022-11-21T18:36:51.071Z,97.55
2022-11-21T18:39:19.159Z,98.26
2022-11-21T18:41:47.378Z,98.96
2022-11-21T18:44:21.264Z,99.76
2022-11-21T18:46:49.982Z,100.00
2022-11-21T18:49:18.314Z,100.00
2022-11-21T18:51:46.487Z,100.00
2022-11-21T18:54:16.451Z,100.00
2022-11-21T18:56:44.544Z,100.00
2022-11-21T18:59:12.809Z,100.00
2022-11-21T19:01:41.060Z,100.00
2022-11-21T19:04:09.532Z,100.00
2022-11-21T19:06:37.652Z,100.00
2022-11-21T19:09:06.100Z,100.00
2022-11-21T19:11:35.692Z,100.00
2022-11-21T19:14:04.005Z,100.00
2022-11-21T19:16:34.391Z,100.00
2022-11-21T19:19:33.044Z,98.34
2022-11-21T19:21:51.655Z,97.88
2022-11-21T19:24:19.891Z,99.71
2022-11-21T19:26:50.716Z,99.75
2022-11-21T19:29:19.582Z,100.00
2022-11-21T19:31:47.887Z,100.00
2022-11-21T19:34:16.466Z,100.00
2022-11-21T19:36:45.401Z,100.00
2022-11-21T19:39:13.978Z,100.00
2022-11-21T19:41:42.108Z,100.00
2022-11-21T19:44:12.268Z,99.80
2022-11-21T19:46:41.201Z,98.87
2022-11-21T19:49:11.405Z,99.64
2022-11-21T19:51:41.168Z,97.98
2022-11-21T19:54:12.152Z,96.63
2022-11-21T19:56:40.761Z,94.88
2022-11-21T19:59:11.497Z,91.72
2022-11-21T20:01:41.411Z,91.16
2022-11-21T20:04:09.691Z,91.79
2022-11-21T20:06:41.513Z,92.76
2022-11-21T20:09:11.437Z,94.79
2022-11-21T20:11:41.086Z,96.09
2022-11-21T20:14:10.128Z,92.42
2022-11-21T20:16:41.313Z,89.61
2022-11-21T20:19:11.929Z,88.67
2022-11-21T20:21:40.382Z,88.72
2022-11-21T20:24:09.141Z,88.83
2022-11-21T20:26:38.065Z,88.59
2022-11-21T20:29:07.027Z,90.53
2022-11-21T20:31:37.952Z,90.28
2022-11-21T20:34:09.802Z,90.97
2022-11-21T20:36:37.858Z,91.29
2022-11-21T20:39:08.104Z,90.64
2022-11-21T20:41:37.761Z,90.68
2022-11-21T20:45:07.235Z,91.46
2022-11-21T20:46:56.092Z,90.77
2022-11-21T20:49:25.734Z,93.18
2022-11-21T20:54:41.967Z,95.81
2022-11-21T20:57:14.944Z,96.50
2022-11-21T20:59:43.863Z,97.73
2022-11-21T21:02:14.393Z,98.71
2022-11-21T21:04:44.106Z,100.00
2022-11-21T21:07:12.368Z,98.90
2022-11-21T21:09:40.621Z,99.49
2022-11-21T21:12:09.013Z,97.91
2022-11-21T21:14:37.119Z,96.14
2022-11-21T21:17:05.223Z,96.75
2022-11-21T21:19:33.417Z,97.98
2022-11-21T21:22:04.979Z,98.06
2022-11-21T21:24:33.216Z,98.34
2022-11-21T21:27:01.350Z,98.72
2022-11-21T21:29:29.659Z,99.04
2022-11-21T21:31:58.059Z,98.42
2022-11-21T21:34:26.174Z,100.00
2022-11-21T21:36:54.239Z,99.25
2022-11-21T21:39:23.718Z,96.72
2022-11-21T21:41:51.857Z,97.71
2022-11-21T21:44:20.122Z,98.36
2022-11-21T21:46:48.321Z,95.42
2022-11-21T21:49:16.484Z,95.98
2022-11-21T21:51:44.661Z,96.37
2022-11-21T21:54:20.301Z,95.48
2022-11-21T21:56:50.834Z,96.02
2022-11-21T21:59:19.887Z,94.52
2022-11-21T22:01:48.193Z,93.29
2022-11-21T22:04:16.322Z,90.17
2022-11-21T22:06:44.465Z,87.36
2022-11-21T22:09:12.669Z,86.10
2022-11-21T22:11:40.820Z,88.41
2022-11-21T22:14:13.954Z,87.10
2022-11-21T22:16:42.844Z,89.13
2022-11-21T22:19:11.141Z,91.28
2022-11-21T22:21:39.754Z,91.54
2022-11-21T22:24:29.226Z,92.05
2022-11-21T22:26:57.387Z,89.43
2022-11-21T22:29:26.941Z,89.29
2022-11-21T22:31:55.369Z,90.16
2022-11-21T22:34:23.601Z,93.26
2022-11-21T22:36:51.737Z,94.66
2022-11-21T22:39:20.333Z,96.42
2022-11-21T22:41:48.485Z,96.20
2022-11-21T22:44:16.652Z,94.58
2022-11-21T22:46:46.116Z,93.60
2022-11-21T22:49:14.478Z,94.16
2022-11-21T22:51:42.860Z,94.18
2022-11-21T22:54:10.987Z,95.28
2022-11-21T22:56:39.261Z,94.63
2022-11-21T22:59:07.573Z,93.61
2022-11-21T23:01:35.784Z,92.88
2022-11-21T23:04:05.634Z,94.40
2022-11-21T23:06:33.858Z,94.10
2022-11-21T23:09:01.935Z,95.54
2022-11-21T23:11:35.013Z,98.19
2022-11-21T23:14:07.953Z,99.16
2022-11-21T23:16:36.110Z,97.40
2022-11-21T23:19:05.593Z,96.69
2022-11-21T23:21:33.703Z,96.63
2022-11-21T23:24:01.917Z,96.92
2022-11-21T23:26:30.033Z,98.11
2022-11-21T23:28:58.959Z,97.20
2022-11-21T23:31:29.433Z,98.63
2022-11-21T23:33:57.521Z,100.00
2022-11-21T23:36:27.050Z,100.00
2022-11-21T23:38:55.541Z,100.00
2022-11-21T23:41:24.011Z,100.00
2022-11-21T23:43:53.242Z,100.00
2022-11-21T23:46:21.372Z,100.00
2022-11-21T23:48:49.489Z,100.00
2022-11-21T23:51:17.632Z,100.00
2022-11-21T23:53:47.194Z,100.00
2022-11-21T23:56:15.268Z,100.00
2022-11-21T23:58:43.356Z,100.00
